Kathryn, ND (58049)

11:28 AM CDT on March 29, 2015 (GMT -0500)
Valley City | | Change Station
CLOSE
Current Station
Airport
Location: Valley City,
Elevation: 1401 ft
Nearby Weather Stations
Active Advisory: Wind Advisory

Elev 1401 ft 46.94 °N, 98.02 °W | Updated 13 minutes ago

Partly Cloudy
Partly Cloudy
46 °F
Feels Like 37 °F
N
29
Wind Variable Wind from NW
Gusts 38 mph

Today
High -- | Low -- °F
--% Chance of Precip.
Yesterday
High -- | Low -- °F
Precip. -- in
7:17 AM 7:56 PM
Waxing Gibbous, 72% visible
Pressure 29.89 in
Visibility 10.0 miles
Clouds Few 2700 ft
Windchill 37 °F
Dew Point 37 °F
Humidity 71%
Rainfall 1.01 in
Snow Depth Not available.
UV 4 out of 12
Pollen 1.10 out of 12
Air Quality Not available.
Flu Activity Not available.
METAR KBAC 291615Z AUTO 32025G33KT 10SM FEW027 08/03 A2989 RMK AO2

More Conditions Fewer Conditions

Pressure 29.89 in
Visibility 10.0 miles
Clouds Few 2700 ft
Windchill 37 °F
Dew Point 37 °F
Humidity 71%
Rainfall 1.01 in
Snow Depth Not available.
UV 4 out of 12
Pollen 1.10 out of 12
Air Quality Not available.
Flu Activity Not available.
METAR KBAC 291615Z AUTO 32025G33KT 10SM FEW027 08/03 A2989 RMK AO2

More Conditions Fewer Conditions

10-Day Weather Forecast

Almanac

Astronomy

Mar. 29, 2015 Rise Set
Actual Time
Civil Twilight
Nautical Twilight
Astronomical Twilight
Moon
Length of Visible Light
Length of Day
Tomorrow will be .
, % of the Moon is Illuminated

Today's Extremes

State Highs State Lows

Community

WunderPhotos

Upload Photos

1,809,284 photos uploaded!

WunderBlogs® & News

Nearby

Air Quality

  Air Quality AQ Index Pollutant
Not available.

Snow Depth

Station Depth Elevation

Earthquake Activity

City Distance Mag. Time & Date
Minimum magnitude displayed is 2.5.

Coastal Water Temperatures

Place Temperature

Stations

Nearby Weather Stations

Station Location Temp. Windchill Dew Point Humidity Wind Precip. Elev Updated Type
                   
Wind Advisory
Statement as of 4:14 AM CDT on March 29, 2015

... Wind Advisory remains in effect until 7 PM CDT this evening...

* timing... towards sunrise in the Devils Lake region spreading
east during the morning.

* Winds... northwest 25 to 35 mph with higher gusts.

* Impacts... waves of 4 to 6 feet may be generated in the Devils
Lake basin and result in roadbed erosion in susceptible areas.

Precautionary/preparedness actions...

A Wind Advisory means that sustained winds of 30 mph or frequent
gusts to 45 mph are expected. Winds this strong can make driving
difficult... especially for high profile vehicles. Use extra
caution.